createdAt,value
2022-08-02T00:01:02.984Z,29.06
2022-08-02T00:03:31.737Z,29.10
2022-08-02T00:06:01.477Z,29.11
2022-08-02T00:08:29.577Z,29.11
2022-08-02T00:11:00.226Z,29.26
2022-08-02T00:13:28.659Z,29.57
2022-08-02T00:15:56.639Z,29.03
2022-08-02T00:18:24.917Z,29.19
2022-08-02T00:20:53.068Z,29.15
2022-08-02T00:23:21.217Z,29.25
2022-08-02T00:25:55.419Z,29.32
2022-08-02T00:28:27.811Z,29.48
2022-08-02T00:30:59.802Z,30.28
2022-08-02T00:34:27.275Z,30.70
2022-08-02T00:36:16.269Z,30.57
2022-08-02T00:38:44.711Z,30.82
2022-08-02T00:41:16.850Z,30.74
2022-08-02T00:43:47.338Z,31.42
2022-08-02T00:46:16.956Z,30.48
2022-08-02T00:48:45.492Z,31.34
2022-08-02T00:51:14.857Z,31.64
2022-08-02T00:53:43.296Z,32.80
2022-08-02T00:56:11.475Z,32.78
2022-08-02T00:58:39.993Z,32.92
2022-08-02T01:01:08.312Z,33.08
2022-08-02T01:03:36.481Z,33.21
2022-08-02T01:06:12.091Z,33.76
2022-08-02T01:08:41.403Z,33.66
2022-08-02T01:11:12.384Z,33.95
2022-08-02T01:13:40.717Z,33.29
2022-08-02T01:16:16.838Z,33.50
2022-08-02T01:18:51.597Z,33.23
2022-08-02T01:21:44.274Z,33.66
2022-08-02T01:24:59.594Z,33.55
2022-08-02T01:28:06.427Z,33.37
2022-08-02T01:30:36.633Z,32.98
2022-08-02T01:33:07.244Z,33.41
2022-08-02T01:35:47.177Z,33.34
2022-08-02T01:38:29.843Z,33.21
2022-08-02T01:41:00.228Z,32.99
2022-08-02T01:43:31.707Z,33.08
2022-08-02T01:46:01.886Z,32.75
2022-08-02T01:48:32.544Z,33.09
2022-08-02T01:51:03.165Z,32.60
2022-08-02T01:53:33.314Z,33.21
2022-08-02T01:56:03.659Z,33.55
2022-08-02T01:58:37.038Z,33.27
2022-08-02T02:01:08.429Z,33.05
2022-08-02T02:03:41.692Z,33.57
2022-08-02T02:06:12.046Z,33.32
2022-08-02T02:08:43.925Z,33.38
2022-08-02T02:12:11.039Z,33.31
2022-08-02T02:14:04.209Z,33.44
2022-08-02T02:16:33.795Z,33.93
2022-08-02T02:19:03.886Z,33.78
2022-08-02T02:21:32.235Z,34.69
2022-08-02T02:24:07.187Z,34.86
2022-08-02T02:26:49.308Z,35.37
2022-08-02T02:29:24.345Z,35.36
2022-08-02T02:31:55.666Z,35.90
2022-08-02T02:34:32.454Z,36.26
2022-08-02T02:37:05.316Z,37.18
2022-08-02T02:39:34.078Z,37.26
2022-08-02T02:42:04.686Z,37.91
2022-08-02T02:44:36.037Z,38.01
2022-08-02T02:47:05.706Z,38.19
2022-08-02T02:49:35.564Z,37.97
2022-08-02T02:52:06.319Z,37.71
2022-08-02T02:54:36.786Z,37.95
2022-08-02T02:57:07.032Z,38.31
2022-08-02T02:59:36.543Z,38.85
2022-08-02T03:02:19.168Z,38.90
2022-08-02T03:04:56.012Z,38.53
2022-08-02T03:07:27.212Z,39.27
2022-08-02T03:09:55.680Z,39.20
2022-08-02T03:12:30.586Z,39.60
2022-08-02T03:15:08.030Z,39.04
2022-08-02T03:17:41.984Z,39.51
2022-08-02T03:20:16.181Z,39.54
2022-08-02T03:22:46.165Z,39.69
2022-08-02T03:25:16.532Z,39.00
2022-08-02T03:27:44.947Z,39.08
2022-08-02T03:30:14.915Z,39.38
2022-08-02T03:32:45.390Z,38.12
2022-08-02T03:35:22.861Z,38.29
2022-08-02T03:37:56.831Z,38.13
2022-08-02T03:40:28.007Z,38.33
2022-08-02T03:42:57.023Z,37.77
2022-08-02T03:45:27.895Z,37.63
2022-08-02T03:47:58.727Z,37.41
2022-08-02T03:50:28.257Z,37.32
2022-08-02T03:52:57.323Z,37.23
2022-08-02T03:55:25.480Z,36.86
2022-08-02T03:57:53.824Z,37.07
2022-08-02T04:00:23.453Z,37.37
2022-08-02T04:02:51.979Z,37.19
2022-08-02T04:05:20.753Z,36.93
2022-08-02T04:08:33.365Z,36.96
2022-08-02T04:10:56.666Z,37.57
2022-08-02T04:13:36.022Z,38.48
2022-08-02T04:16:12.963Z,37.99
2022-08-02T04:18:46.976Z,37.51
2022-08-02T04:21:17.905Z,37.32
2022-08-02T04:23:48.044Z,37.50
2022-08-02T04:26:19.070Z,37.56
2022-08-02T04:28:56.995Z,38.09
2022-08-02T04:31:26.866Z,39.08
2022-08-02T04:33:55.715Z,39.93
2022-08-02T04:36:31.576Z,40.13
2022-08-02T04:39:00.714Z,40.07
2022-08-02T04:41:43.731Z,39.50
2022-08-02T04:44:13.504Z,38.43
2022-08-02T04:46:43.464Z,38.42
2022-08-02T04:49:12.634Z,39.12
2022-08-02T04:51:43.025Z,38.72
2022-08-02T04:54:12.144Z,39.16
2022-08-02T04:56:40.750Z,39.29
2022-08-02T04:59:09.089Z,38.80
2022-08-02T05:01:37.134Z,38.74
2022-08-02T05:04:06.172Z,38.62
2022-08-02T05:06:34.671Z,38.71
2022-08-02T05:09:03.229Z,39.22
2022-08-02T05:11:36.507Z,40.02
2022-08-02T05:14:06.469Z,40.94
2022-08-02T05:16:34.555Z,40.84
2022-08-02T05:19:03.338Z,40.60
2022-08-02T05:21:32.140Z,41.84
2022-08-02T05:24:00.446Z,42.01
2022-08-02T05:26:28.684Z,41.64
2022-08-02T05:28:57.050Z,43.23
2022-08-02T05:31:25.111Z,42.99
2022-08-02T05:33:53.341Z,43.17
2022-08-02T05:36:22.118Z,44.00
2022-08-02T05:38:59.600Z,43.16
2022-08-02T05:41:33.899Z,42.77
2022-08-02T05:44:02.818Z,43.63
2022-08-02T05:46:31.087Z,43.98
2022-08-02T05:48:59.487Z,44.78
2022-08-02T05:51:38.496Z,45.58
2022-08-02T05:54:06.957Z,47.39
2022-08-02T05:56:45.819Z,48.07
2022-08-02T05:59:35.942Z,49.79
2022-08-02T06:02:12.356Z,48.95
2022-08-02T06:05:06.016Z,51.93
2022-08-02T06:07:37.050Z,53.51
2022-08-02T06:10:07.469Z,52.70
2022-08-02T06:12:48.611Z,53.27
2022-08-02T06:15:20.090Z,53.95
2022-08-02T06:17:48.518Z,52.47
2022-08-02T06:20:21.328Z,54.01
2022-08-02T06:22:50.598Z,53.53
2022-08-02T06:25:50.542Z,55.89
2022-08-02T06:28:10.383Z,56.13
2022-08-02T06:30:41.101Z,55.48
2022-08-02T06:33:09.237Z,53.79
2022-08-02T06:36:05.485Z,54.68
2022-08-02T06:38:42.288Z,54.21
2022-08-02T06:41:18.976Z,55.09
2022-08-02T06:44:26.302Z,54.34
2022-08-02T06:47:11.090Z,55.71
2022-08-02T06:49:52.953Z,58.72
2022-08-02T06:52:29.844Z,59.16
2022-08-02T06:55:01.563Z,57.96
2022-08-02T06:57:31.031Z,56.72
2022-08-02T07:00:05.257Z,55.79
2022-08-02T07:02:37.027Z,58.32
2022-08-02T07:05:05.597Z,58.84
2022-08-02T07:07:34.060Z,59.36
2022-08-02T07:10:02.427Z,59.15
2022-08-02T07:12:33.343Z,58.71
2022-08-02T07:15:03.575Z,57.12
2022-08-02T07:17:32.281Z,55.99
2022-08-02T07:20:01.109Z,57.26
2022-08-02T07:22:29.398Z,57.50
2022-08-02T07:25:00.375Z,57.99
2022-08-02T07:27:29.466Z,57.48
2022-08-02T07:29:58.056Z,58.63
2022-08-02T07:32:31.063Z,58.26
2022-08-02T07:35:01.484Z,61.13
2022-08-02T07:37:55.417Z,59.59
2022-08-02T07:40:27.164Z,61.71
2022-08-02T07:43:03.009Z,62.23
2022-08-02T07:45:35.797Z,60.08
2022-08-02T07:48:04.578Z,60.40
2022-08-02T07:50:32.748Z,60.67
2022-08-02T07:53:02.737Z,59.83
2022-08-02T07:55:39.541Z,60.43
2022-08-02T07:58:13.542Z,61.92
2022-08-02T08:00:44.302Z,62.61
2022-08-02T08:03:13.117Z,59.24
2022-08-02T08:05:41.536Z,58.29
2022-08-02T08:08:16.681Z,59.28
2022-08-02T08:10:47.004Z,60.63
2022-08-02T08:13:16.256Z,62.58
2022-08-02T08:15:51.522Z,63.14
2022-08-02T08:18:22.580Z,62.52
2022-08-02T08:20:52.106Z,62.03
2022-08-02T08:23:20.351Z,60.17
2022-08-02T08:25:48.879Z,58.49
2022-08-02T08:28:17.028Z,58.10
2022-08-02T08:30:45.097Z,57.07
2022-08-02T08:33:14.197Z,54.72
2022-08-02T08:35:42.319Z,53.20
2022-08-02T08:38:10.527Z,53.83
2022-08-02T08:40:39.118Z,52.32
2022-08-02T08:43:07.357Z,53.20
2022-08-02T08:45:35.729Z,53.78
2022-08-02T08:48:13.998Z,55.39
2022-08-02T08:50:53.978Z,55.97
2022-08-02T08:53:36.556Z,54.72
2022-08-02T08:56:06.267Z,52.70
2022-08-02T08:58:34.758Z,51.20
2022-08-02T09:01:03.098Z,50.73
2022-08-02T09:03:34.047Z,49.00
2022-08-02T09:06:03.637Z,48.54
2022-08-02T09:08:33.797Z,48.38
2022-08-02T09:11:02.088Z,49.84
2022-08-02T09:13:43.545Z,49.41
2022-08-02T09:16:14.661Z,50.28
2022-08-02T09:18:46.465Z,50.87
2022-08-02T09:21:17.377Z,49.88
2022-08-02T09:23:51.885Z,49.26
2022-08-02T09:26:22.658Z,47.42
2022-08-02T09:28:53.396Z,47.01
2022-08-02T09:31:23.798Z,47.51
2022-08-02T09:34:00.029Z,46.04
2022-08-02T09:36:38.917Z,45.28
2022-08-02T09:39:17.809Z,44.64
2022-08-02T09:41:46.221Z,44.42
2022-08-02T09:44:16.810Z,43.82
2022-08-02T09:46:46.898Z,43.62
2022-08-02T09:49:18.610Z,43.51
2022-08-02T09:51:46.999Z,43.77
2022-08-02T09:54:19.838Z,43.08
2022-08-02T09:56:50.772Z,42.63
2022-08-02T09:59:21.597Z,42.13
2022-08-02T10:01:51.226Z,41.44
2022-08-02T10:04:34.286Z,41.43
2022-08-02T10:07:05.390Z,40.71
2022-08-02T10:09:34.977Z,42.04
2022-08-02T10:12:04.804Z,41.45
2022-08-02T10:14:35.846Z,40.80
2022-08-02T10:17:05.477Z,41.89
2022-08-02T10:20:00.805Z,41.54
2022-08-02T10:22:24.825Z,40.54
2022-08-02T10:24:53.778Z,40.41
2022-08-02T10:27:26.144Z,41.72
2022-08-02T10:29:58.109Z,39.56
2022-08-02T10:32:42.466Z,40.63
2022-08-02T10:35:19.451Z,39.56
2022-08-02T10:37:58.708Z,39.03
2022-08-02T10:40:47.600Z,37.21
2022-08-02T10:43:43.387Z,35.92
2022-08-02T10:46:34.577Z,36.40
2022-08-02T10:49:38.024Z,36.99
2022-08-02T10:52:03.239Z,36.33
2022-08-02T10:54:42.178Z,36.66
2022-08-02T10:57:21.627Z,36.03
2022-08-02T10:59:52.986Z,37.13
2022-08-02T11:02:56.787Z,36.77
2022-08-02T11:05:43.007Z,37.77
2022-08-02T11:08:20.157Z,36.15
2022-08-02T11:10:48.935Z,36.05
2022-08-02T11:13:21.946Z,36.05
2022-08-02T11:15:57.616Z,35.73
2022-08-02T11:18:52.020Z,36.27
2022-08-02T11:21:29.249Z,35.96
2022-08-02T11:24:29.199Z,36.96
2022-08-02T11:26:59.506Z,35.69
2022-08-02T11:29:42.470Z,35.01
2022-08-02T11:32:30.642Z,34.93
2022-08-02T11:35:03.706Z,34.75
2022-08-02T11:37:38.167Z,33.73
2022-08-02T11:40:19.802Z,33.38
2022-08-02T11:42:54.007Z,33.13
2022-08-02T11:45:29.799Z,32.92
2022-08-02T11:47:58.526Z,32.46
2022-08-02T11:50:30.133Z,31.30
2022-08-02T11:52:59.280Z,32.47
2022-08-02T11:55:29.357Z,32.42
2022-08-02T11:58:05.675Z,32.86
2022-08-02T12:00:34.956Z,33.19
2022-08-02T12:03:03.488Z,33.27
2022-08-02T12:06:04.381Z,32.83
2022-08-02T12:08:25.537Z,32.56
2022-08-02T12:10:54.930Z,32.80
2022-08-02T12:13:23.844Z,32.81
2022-08-02T12:15:52.159Z,32.20
2022-08-02T12:18:41.589Z,32.15
2022-08-02T12:21:25.781Z,31.67
2022-08-02T12:23:59.623Z,31.74
2022-08-02T12:26:30.775Z,31.15
2022-08-02T12:28:59.749Z,30.38
2022-08-02T12:31:56.776Z,30.07
2022-08-02T12:34:31.447Z,29.57
2022-08-02T12:37:04.446Z,29.45
2022-08-02T12:39:44.509Z,27.35
2022-08-02T12:42:15.718Z,29.42
2022-08-02T12:44:56.326Z,28.53
2022-08-02T12:47:24.847Z,28.87
2022-08-02T12:50:20.963Z,28.86
2022-08-02T12:52:49.830Z,28.56
2022-08-02T12:55:26.167Z,28.74
2022-08-02T12:58:14.481Z,29.86
2022-08-02T13:00:44.548Z,28.01
2022-08-02T13:04:10.420Z,26.13
2022-08-02T13:06:12.200Z,24.95
2022-08-02T13:08:51.817Z,23.94
2022-08-02T13:11:20.617Z,24.43
2022-08-02T13:13:49.723Z,22.48
2022-08-02T13:16:17.959Z,23.48
2022-08-02T13:19:00.261Z,23.93
2022-08-02T13:21:41.023Z,23.40
2022-08-02T13:24:27.370Z,23.10
2022-08-02T13:27:08.340Z,24.10
2022-08-02T13:29:38.528Z,23.82
2022-08-02T13:32:06.853Z,24.26
2022-08-02T13:34:35.157Z,24.45
2022-08-02T13:37:04.892Z,25.46
2022-08-02T13:39:33.125Z,24.95
2022-08-02T13:42:01.307Z,23.78
2022-08-02T13:44:29.870Z,23.32
2022-08-02T13:46:58.422Z,22.65
2022-08-02T13:49:51.425Z,24.92
2022-08-02T13:52:15.416Z,24.16
2022-08-02T13:54:44.106Z,24.67
2022-08-02T13:57:12.267Z,23.61
2022-08-02T13:59:56.154Z,23.62
2022-08-02T14:02:29.567Z,25.18
2022-08-02T14:04:57.918Z,24.48
2022-08-02T14:07:26.135Z,23.70
2022-08-02T14:09:54.157Z,23.88
2022-08-02T14:12:22.599Z,24.40
2022-08-02T14:14:51.110Z,24.63
2022-08-02T14:17:19.186Z,24.08
2022-08-02T14:19:47.778Z,24.01
2022-08-02T14:22:16.068Z,24.04
2022-08-02T14:24:44.310Z,23.41
2022-08-02T14:27:12.938Z,23.13
2022-08-02T14:29:41.079Z,23.69
2022-08-02T14:32:09.588Z,23.35
2022-08-02T14:34:38.178Z,24.42
2022-08-02T14:37:06.334Z,24.70
2022-08-02T14:39:43.372Z,23.62
2022-08-02T14:42:22.997Z,24.17
2022-08-02T14:44:52.068Z,24.98
2022-08-02T14:47:20.179Z,24.09
2022-08-02T14:49:50.530Z,23.49
2022-08-02T14:52:19.768Z,23.34
2022-08-02T14:54:48.034Z,23.13
2022-08-02T14:57:16.470Z,22.72
2022-08-02T14:59:45.046Z,23.60
2022-08-02T15:02:14.027Z,23.90
2022-08-02T15:04:43.949Z,23.73
2022-08-02T15:07:14.560Z,23.74
2022-08-02T15:09:42.739Z,23.97
2022-08-02T15:12:12.738Z,23.43
2022-08-02T15:14:41.190Z,24.34
2022-08-02T15:17:09.737Z,23.70
2022-08-02T15:19:56.705Z,23.31
2022-08-02T15:22:27.893Z,23.68
2022-08-02T15:24:57.913Z,24.45
2022-08-02T15:27:26.277Z,24.39
2022-08-02T15:30:00.709Z,23.03
2022-08-02T15:32:29.581Z,24.63
2022-08-02T15:34:57.666Z,23.22
2022-08-02T15:37:30.946Z,23.30
2022-08-02T15:40:00.667Z,22.69
2022-08-02T15:42:30.766Z,23.80
2022-08-02T15:44:59.823Z,23.81
2022-08-02T15:47:28.493Z,23.63
2022-08-02T15:49:56.693Z,23.98
2022-08-02T15:52:27.401Z,24.25
2022-08-02T15:54:56.421Z,23.88
2022-08-02T15:57:35.346Z,24.66
2022-08-02T16:00:06.657Z,24.46
2022-08-02T16:02:48.057Z,24.36
2022-08-02T16:05:18.424Z,24.10
2022-08-02T16:07:46.948Z,24.20
2022-08-02T16:10:17.251Z,23.79
2022-08-02T16:12:45.703Z,23.30
2022-08-02T16:15:13.877Z,23.18
2022-08-02T16:17:54.501Z,22.85
2022-08-02T16:20:23.365Z,24.02
2022-08-02T16:22:51.507Z,24.70
2022-08-02T16:25:19.681Z,25.29
2022-08-02T16:27:57.778Z,25.11
2022-08-02T16:30:36.289Z,25.19
2022-08-02T16:33:04.909Z,24.72
2022-08-02T16:35:33.098Z,24.82
2022-08-02T16:38:01.286Z,24.33
2022-08-02T16:40:30.890Z,25.54
2022-08-02T16:43:00.340Z,25.62
2022-08-02T16:45:29.667Z,24.98
2022-08-02T16:48:05.200Z,24.53
2022-08-02T16:50:34.314Z,25.03
2022-08-02T16:53:07.317Z,24.90
2022-08-02T16:55:36.772Z,25.11
2022-08-02T16:58:05.340Z,25.26
2022-08-02T17:00:38.287Z,25.72
2022-08-02T17:03:14.718Z,25.12
2022-08-02T17:05:56.285Z,24.95
2022-08-02T17:08:31.794Z,26.00
2022-08-02T17:11:03.850Z,25.14
2022-08-02T17:13:34.173Z,25.06
2022-08-02T17:16:26.066Z,24.70
2022-08-02T17:18:55.616Z,25.05
2022-08-02T17:21:24.084Z,24.86
2022-08-02T17:24:07.709Z,25.81
2022-08-02T17:26:38.247Z,25.43
2022-08-02T17:29:15.430Z,26.15
2022-08-02T17:32:05.528Z,25.67
2022-08-02T17:34:36.618Z,25.78
2022-08-02T17:37:06.351Z,26.20
2022-08-02T17:39:44.237Z,26.26
2022-08-02T17:42:23.668Z,26.03
2022-08-02T17:44:54.065Z,26.86
2022-08-02T17:47:23.357Z,27.76
2022-08-02T17:50:00.111Z,26.80
2022-08-02T17:52:51.063Z,26.83
2022-08-02T17:55:18.560Z,27.13
2022-08-02T17:57:57.417Z,27.49
2022-08-02T18:00:35.568Z,27.99
2022-08-02T18:03:10.063Z,27.80
2022-08-02T18:05:53.007Z,27.46
2022-08-02T18:08:23.836Z,27.75
2022-08-02T18:10:56.938Z,28.39
2022-08-02T18:13:25.840Z,28.29
2022-08-02T18:16:02.518Z,28.60
2022-08-02T18:18:32.388Z,28.20
2022-08-02T18:21:15.994Z,28.28
2022-08-02T18:23:58.151Z,27.96
2022-08-02T18:26:28.731Z,27.83
2022-08-02T18:28:58.992Z,27.95
2022-08-02T18:31:27.406Z,28.32
2022-08-02T18:34:01.965Z,27.93
2022-08-02T18:36:32.482Z,28.35
2022-08-02T18:39:07.950Z,27.91
2022-08-02T18:41:38.053Z,28.36
2022-08-02T18:44:06.620Z,28.18
2022-08-02T18:46:34.918Z,28.29
2022-08-02T18:49:13.300Z,28.32
2022-08-02T18:51:44.356Z,28.24
2022-08-02T18:54:12.971Z,28.50
2022-08-02T18:56:47.199Z,28.35
2022-08-02T18:59:17.262Z,28.21
2022-08-02T19:01:51.084Z,28.06
2022-08-02T19:04:27.208Z,28.57
2022-08-02T19:07:01.734Z,28.11
2022-08-02T19:09:40.264Z,28.72
2022-08-02T19:12:11.780Z,28.47
2022-08-02T19:14:41.271Z,28.62
2022-08-02T19:17:15.849Z,28.88
2022-08-02T19:19:58.807Z,28.97
2022-08-02T19:22:27.326Z,28.68
2022-08-02T19:25:00.956Z,28.74
2022-08-02T19:27:32.951Z,28.86
2022-08-02T19:30:07.650Z,28.93
2022-08-02T19:32:41.829Z,28.90
2022-08-02T19:35:30.996Z,29.15
2022-08-02T19:38:11.330Z,29.38
2022-08-02T19:40:42.206Z,29.66
2022-08-02T19:44:25.146Z,29.69
2022-08-02T19:46:00.609Z,30.16
2022-08-02T19:48:29.212Z,30.03
2022-08-02T19:51:01.220Z,30.07
2022-08-02T19:53:48.299Z,30.45
2022-08-02T19:56:25.550Z,30.54
2022-08-02T19:58:57.026Z,30.08
2022-08-02T20:01:36.585Z,30.31
2022-08-02T20:04:13.068Z,30.94
2022-08-02T20:06:49.327Z,30.88
2022-08-02T20:09:23.726Z,31.25
2022-08-02T20:12:03.014Z,30.97
2022-08-02T20:14:31.263Z,31.46
2022-08-02T20:17:00.339Z,31.60
2022-08-02T20:19:28.925Z,31.39
2022-08-02T20:22:00.560Z,31.60
2022-08-02T20:24:29.814Z,31.28
2022-08-02T20:26:59.366Z,32.03
2022-08-02T20:29:45.070Z,32.25
2022-08-02T20:32:22.656Z,32.68
2022-08-02T20:38:00.479Z,32.90
2022-08-02T20:40:27.976Z,33.46
2022-08-02T20:42:56.265Z,33.77
2022-08-02T20:45:27.074Z,33.28
2022-08-02T20:47:55.825Z,34.19
2022-08-02T20:50:50.871Z,34.00
2022-08-02T20:53:23.669Z,33.60
2022-08-02T20:55:55.327Z,34.03
2022-08-02T20:58:27.405Z,34.07
2022-08-02T21:01:00.138Z,33.98
2022-08-02T21:03:39.251Z,33.99
2022-08-02T21:06:09.869Z,33.80
2022-08-02T21:08:41.084Z,34.33
2022-08-02T21:11:12.721Z,34.53
2022-08-02T21:13:47.418Z,34.76
2022-08-02T21:16:30.561Z,34.45
2022-08-02T21:19:00.090Z,34.59
2022-08-02T21:21:30.046Z,34.95
2022-08-02T21:24:01.768Z,34.98
2022-08-02T21:26:32.178Z,34.54
2022-08-02T21:29:03.483Z,34.85
2022-08-02T21:31:36.157Z,35.35
2022-08-02T21:34:21.751Z,35.55
2022-08-02T21:36:55.243Z,35.44
2022-08-02T21:39:24.010Z,35.65
2022-08-02T21:41:52.009Z,35.46
2022-08-02T21:44:22.391Z,35.50
2022-08-02T21:46:53.211Z,35.49
2022-08-02T21:49:27.117Z,35.62
2022-08-02T21:52:11.654Z,35.31
2022-08-02T21:54:40.820Z,35.65
2022-08-02T21:57:15.563Z,36.58
2022-08-02T21:59:52.736Z,36.33
2022-08-02T22:02:30.674Z,36.30
2022-08-02T22:05:03.217Z,36.86
2022-08-02T22:07:38.387Z,37.46
2022-08-02T22:10:09.523Z,37.26
2022-08-02T22:12:38.498Z,36.93
2022-08-02T22:15:10.168Z,37.70
2022-08-02T22:17:52.893Z,37.83
2022-08-02T22:20:29.292Z,37.93
2022-08-02T22:22:58.046Z,38.06
2022-08-02T22:25:36.922Z,38.30
2022-08-02T22:28:38.256Z,38.17
2022-08-02T22:30:59.943Z,38.84
2022-08-02T22:34:00.148Z,38.24
2022-08-02T22:36:31.063Z,38.11
2022-08-02T22:39:00.029Z,37.47
2022-08-02T22:42:01.938Z,37.07
2022-08-02T22:44:18.378Z,37.83
2022-08-02T22:46:50.010Z,37.30
2022-08-02T22:49:38.117Z,37.33
2022-08-02T22:52:07.730Z,36.74
2022-08-02T22:54:36.302Z,38.16
2022-08-02T22:57:06.417Z,38.63
2022-08-02T22:58:55.697Z,32.88
2022-08-02T22:59:39.042Z,38.30
2022-08-02T23:02:09.925Z,38.04
2022-08-02T23:04:38.566Z,38.13
2022-08-02T23:07:06.603Z,38.89
2022-08-02T23:09:34.883Z,39.18
2022-08-02T23:12:03.464Z,39.02
2022-08-02T23:14:31.461Z,38.83
2022-08-02T23:17:18.203Z,39.43
2022-08-02T23:19:52.049Z,39.64
2022-08-02T23:22:29.376Z,39.54
2022-08-02T23:24:59.528Z,39.44
2022-08-02T23:27:28.680Z,40.06
2022-08-02T23:29:57.001Z,40.25
2022-08-02T23:32:26.222Z,39.58
2022-08-02T23:34:56.491Z,39.26
2022-08-02T23:37:25.793Z,39.19
2022-08-02T23:39:53.850Z,39.57
2022-08-02T23:42:25.423Z,40.31
2022-08-02T23:44:54.061Z,40.04
2022-08-02T23:47:22.292Z,40.22
2022-08-02T23:49:50.762Z,40.30
2022-08-02T23:52:19.126Z,39.75
2022-08-02T23:54:47.689Z,40.28
2022-08-02T23:57:20.743Z,40.02
2022-08-02T23:59:52.711Z,40.59
